createdAt,value
2018-07-11T00:01:21.963Z,99700.20
2018-07-11T00:03:54.516Z,99710.64
2018-07-11T00:06:24.820Z,99708.37
2018-07-11T00:08:53.794Z,99710.14
2018-07-11T00:11:22.809Z,99710.91
2018-07-11T00:13:51.913Z,99719.72
2018-07-11T00:16:20.929Z,99726.70
2018-07-11T00:18:49.972Z,99731.09
2018-07-11T00:21:19.021Z,99729.91
2018-07-11T00:23:48.052Z,99740.20
2018-07-11T00:26:17.089Z,99733.84
2018-07-11T00:28:46.194Z,99732.44
2018-07-11T00:31:15.252Z,99727.97
2018-07-11T00:33:44.315Z,99724.34
2018-07-11T00:36:13.297Z,99722.67
2018-07-11T00:38:42.290Z,99715.30
2018-07-11T00:41:11.267Z,99720.05
2018-07-11T00:43:40.284Z,99716.68
2018-07-11T00:46:09.316Z,99717.66
2018-07-11T00:48:38.277Z,99718.06
2018-07-11T00:51:07.281Z,99706.72
2018-07-11T00:53:37.805Z,99704.70
2018-07-11T00:56:06.817Z,99696.37
2018-07-11T00:58:44.132Z,99693.30
2018-07-11T01:01:15.207Z,99693.75
2018-07-11T01:03:50.768Z,99693.63
2018-07-11T01:06:20.265Z,99695.84
2018-07-11T01:08:54.183Z,99692.69
2018-07-11T01:11:24.436Z,99701.06
2018-07-11T01:13:53.506Z,99688.13
2018-07-11T01:16:23.795Z,99691.63
2018-07-11T01:19:00.759Z,99699.48
2018-07-11T01:21:30.383Z,99697.07
2018-07-11T01:23:59.409Z,99691.02
2018-07-11T01:26:30.537Z,99692.77
2018-07-11T01:28:59.642Z,99697.95
2018-07-11T01:31:28.696Z,99701.89
2018-07-11T01:33:58.158Z,99689.74
2018-07-11T01:36:27.693Z,99696.54
2018-07-11T01:38:57.537Z,99704.17
2018-07-11T01:41:26.524Z,99695.41
2018-07-11T01:43:55.479Z,99703.34
2018-07-11T01:46:24.623Z,99691.77
2018-07-11T01:48:53.603Z,99700.42
2018-07-11T01:51:32.341Z,99702.52
2018-07-11T01:54:01.318Z,99701.81
2018-07-11T01:56:30.300Z,99701.15
2018-07-11T01:58:59.345Z,99704.52
2018-07-11T02:01:28.570Z,99711.70
2018-07-11T02:03:57.638Z,99710.20
2018-07-11T02:06:26.689Z,99714.33
2018-07-11T02:08:55.696Z,99720.16
2018-07-11T02:11:24.758Z,99716.05
2018-07-11T02:13:53.861Z,99715.73
2018-07-11T02:16:22.857Z,99711.61
2018-07-11T02:18:51.856Z,99713.70
2018-07-11T02:21:21.042Z,99709.58
2018-07-11T02:23:50.041Z,99716.08
2018-07-11T02:26:19.039Z,99715.77
2018-07-11T02:28:48.101Z,99714.06
2018-07-11T02:31:17.135Z,99713.88
2018-07-11T02:33:46.153Z,99713.12
2018-07-11T02:36:15.248Z,99720.06
2018-07-11T02:38:44.220Z,99710.23
2018-07-11T02:41:13.241Z,99711.30
2018-07-11T02:43:42.223Z,99713.07
2018-07-11T02:46:11.184Z,99709.88
2018-07-11T02:48:40.285Z,99711.70
2018-07-11T02:51:09.340Z,99710.34
2018-07-11T02:53:38.321Z,99712.66
2018-07-11T02:56:07.339Z,99712.05
2018-07-11T02:58:36.400Z,99718.41
2018-07-11T03:01:05.401Z,99720.94
2018-07-11T03:03:34.359Z,99727.89
2018-07-11T03:06:03.431Z,99726.39
2018-07-11T03:08:37.637Z,99725.82
2018-07-11T03:11:07.017Z,99732.33
2018-07-11T03:13:36.071Z,99732.03
2018-07-11T03:16:05.025Z,99729.77
2018-07-11T03:18:34.069Z,99730.36
2018-07-11T03:21:03.091Z,99724.16
2018-07-11T03:23:32.160Z,99728.35
2018-07-11T03:26:01.120Z,99732.85
2018-07-11T03:28:30.096Z,99729.36
2018-07-11T03:30:59.129Z,99731.33
2018-07-11T03:33:28.121Z,99724.92
2018-07-11T03:35:57.088Z,99727.78
2018-07-11T03:38:26.140Z,99730.16
2018-07-11T03:40:55.092Z,99729.63
2018-07-11T03:43:24.064Z,99728.50
2018-07-11T03:45:53.158Z,99732.63
2018-07-11T03:48:22.128Z,99731.92
2018-07-11T03:50:51.165Z,99730.86
2018-07-11T03:53:20.120Z,99735.67
2018-07-11T03:55:49.283Z,99735.59
2018-07-11T03:58:18.293Z,99744.09
2018-07-11T04:00:47.258Z,99748.59
2018-07-11T04:03:17.169Z,99744.31
2018-07-11T04:05:46.201Z,99748.77
2018-07-11T04:08:15.289Z,99754.76
2018-07-11T04:10:44.239Z,99752.39
2018-07-11T04:13:18.177Z,99755.08
2018-07-11T04:15:47.212Z,99754.83
2018-07-11T04:18:26.457Z,99754.68
2018-07-11T04:20:55.657Z,99745.97
2018-07-11T04:23:24.881Z,99750.02
2018-07-11T04:25:54.341Z,99747.36
2018-07-11T04:28:24.304Z,99750.72
2018-07-11T04:30:53.411Z,99754.99
2018-07-11T04:33:22.540Z,99752.22
2018-07-11T04:35:52.568Z,99748.92
2018-07-11T04:38:21.613Z,99756.33
2018-07-11T04:40:51.176Z,99753.70
2018-07-11T04:43:20.673Z,99752.32
2018-07-11T04:45:49.860Z,99751.84
2018-07-11T04:48:21.071Z,99753.02
2018-07-11T04:50:50.953Z,99755.84
2018-07-11T04:53:25.268Z,99751.08
2018-07-11T04:56:02.784Z,99753.72
2018-07-11T04:58:32.530Z,99755.59
2018-07-11T05:01:01.705Z,99752.97
2018-07-11T05:03:30.827Z,99750.42
2018-07-11T05:05:59.855Z,99753.29
2018-07-11T05:08:28.831Z,99753.05
2018-07-11T05:10:57.958Z,99754.52
2018-07-11T05:13:26.990Z,99758.33
2018-07-11T05:15:56.104Z,99763.86
2018-07-11T05:18:25.143Z,99761.45
2018-07-11T05:20:54.175Z,99761.24
2018-07-11T05:23:23.207Z,99764.39
2018-07-11T05:25:52.233Z,99761.86
2018-07-11T05:28:21.250Z,99768.55
2018-07-11T05:30:50.238Z,99765.03
2018-07-11T05:33:19.300Z,99760.56
2018-07-11T05:35:48.274Z,99760.72
2018-07-11T05:38:17.281Z,99763.10
2018-07-11T05:40:46.324Z,99763.76
2018-07-11T05:43:15.297Z,99765.31
2018-07-11T05:45:44.398Z,99763.84
2018-07-11T05:48:13.493Z,99768.95
2018-07-11T05:50:42.647Z,99770.46
2018-07-11T05:53:11.623Z,99766.83
2018-07-11T05:55:40.684Z,99773.96
2018-07-11T05:58:09.665Z,99771.16
2018-07-11T06:00:38.755Z,99773.11
2018-07-11T06:03:07.740Z,99774.50
2018-07-11T06:05:36.799Z,99772.83
2018-07-11T06:08:05.772Z,99770.43
2018-07-11T06:10:34.724Z,99770.45
2018-07-11T06:13:03.733Z,99772.16
2018-07-11T06:15:32.834Z,99766.52
2018-07-11T06:18:01.913Z,99770.32
2018-07-11T06:20:30.897Z,99761.23
2018-07-11T06:22:59.945Z,99770.28
2018-07-11T06:25:29.057Z,99764.56
2018-07-11T06:27:58.150Z,99764.28
2018-07-11T06:30:27.124Z,99767.33
2018-07-11T06:32:56.161Z,99764.41
2018-07-11T06:35:25.244Z,99769.81
2018-07-11T06:37:54.325Z,99763.99
2018-07-11T06:40:23.366Z,99768.26
2018-07-11T06:42:52.340Z,99762.68
2018-07-11T06:45:21.382Z,99764.14
2018-07-11T06:47:50.394Z,99767.36
2018-07-11T06:50:19.651Z,99764.99
2018-07-11T06:52:48.627Z,99758.21
2018-07-11T06:55:17.716Z,99756.31
2018-07-11T06:57:46.789Z,99753.31
2018-07-11T07:00:15.772Z,99756.19
2018-07-11T07:02:44.743Z,99746.67
2018-07-11T07:05:13.738Z,99745.91
2018-07-11T07:07:42.828Z,99746.92
2018-07-11T07:10:11.800Z,99751.77
2018-07-11T07:12:40.842Z,99750.17
2018-07-11T07:15:09.917Z,99748.81
2018-07-11T07:17:38.938Z,99754.55
2018-07-11T07:20:07.997Z,99748.98
2018-07-11T07:22:36.994Z,99751.21
2018-07-11T07:25:06.059Z,99749.75
2018-07-11T07:27:35.032Z,99749.92
2018-07-11T07:30:04.213Z,99748.94
2018-07-11T07:32:33.228Z,99749.13
2018-07-11T07:35:02.245Z,99745.42
2018-07-11T07:37:31.303Z,99750.09
2018-07-11T07:40:00.394Z,99748.45
2018-07-11T07:42:29.379Z,99747.39
2018-07-11T07:44:58.473Z,99740.17
2018-07-11T07:47:32.557Z,99740.30
2018-07-11T07:50:01.605Z,99741.30
2018-07-11T07:52:30.652Z,99734.63
2018-07-11T07:54:59.645Z,99738.73
2018-07-11T07:57:29.770Z,99745.95
2018-07-11T07:59:58.788Z,99740.02
2018-07-11T08:02:27.793Z,99734.11
2018-07-11T08:04:57.035Z,99740.64
2018-07-11T08:07:26.009Z,99740.03
2018-07-11T08:09:55.057Z,99740.11
2018-07-11T08:12:24.093Z,99737.45
2018-07-11T08:14:53.060Z,99728.98
2018-07-11T08:17:22.028Z,99730.55
2018-07-11T08:19:51.084Z,99733.33
2018-07-11T08:22:33.729Z,99732.25
2018-07-11T08:25:13.607Z,99726.05
2018-07-11T08:27:57.360Z,99729.67
2018-07-11T08:31:38.005Z,99728.53
2018-07-11T08:35:17.438Z,99732.81
2018-07-11T08:38:10.947Z,99731.82
2018-07-11T08:42:53.501Z,99725.31
2018-07-11T08:45:35.836Z,99723.23
2018-07-11T08:48:16.070Z,99726.38
2018-07-11T08:50:55.015Z,99721.02
2018-07-11T08:55:35.481Z,99721.84
2018-07-11T08:59:15.895Z,99714.00
2018-07-11T09:02:01.397Z,99709.33
2018-07-11T09:15:07.899Z,99716.23
2018-07-11T09:18:27.372Z,99707.72
2018-07-11T09:21:13.645Z,99702.72
2018-07-11T09:24:19.574Z,99694.02
2018-07-11T09:26:48.519Z,99692.31
2018-07-11T09:29:17.496Z,99698.00
2018-07-11T09:31:46.557Z,99697.17
2018-07-11T09:34:15.645Z,99700.39
2018-07-11T09:36:44.677Z,99703.95
2018-07-11T09:39:13.693Z,99696.85
2018-07-11T09:41:42.696Z,99700.41
2018-07-11T09:44:11.769Z,99703.95
2018-07-11T09:46:40.750Z,99689.53
2018-07-11T09:49:09.969Z,99705.30
2018-07-11T09:51:39.337Z,99703.66
2018-07-11T09:54:08.372Z,99705.05
2018-07-11T09:56:37.420Z,99712.33
2018-07-11T09:59:06.521Z,99703.30
2018-07-11T10:01:35.533Z,99703.22
2018-07-11T10:04:04.662Z,99705.70
2018-07-11T10:06:33.663Z,99698.81
2018-07-11T10:09:02.760Z,99705.53
2018-07-11T10:11:31.804Z,99688.33
2018-07-11T10:14:00.821Z,99691.42
2018-07-11T10:16:29.838Z,99696.61
2018-07-11T10:19:01.183Z,99696.95
2018-07-11T10:21:31.089Z,99686.05
2018-07-11T10:24:00.701Z,99689.28
2018-07-11T10:26:29.866Z,99693.45
2018-07-11T10:28:58.901Z,99701.06
2018-07-11T10:31:28.700Z,99705.11
2018-07-11T10:33:57.654Z,99697.32
2018-07-11T10:36:26.679Z,99694.28
2018-07-11T10:38:56.063Z,99692.75
2018-07-11T10:41:25.168Z,99691.84
2018-07-11T10:43:54.303Z,99692.96
2018-07-11T10:46:23.315Z,99696.66
2018-07-11T10:48:52.389Z,99695.14
2018-07-11T10:51:21.391Z,99694.02
2018-07-11T10:53:50.428Z,99691.70
2018-07-11T10:56:19.562Z,99684.14
2018-07-11T10:58:48.642Z,99685.25
2018-07-11T11:01:18.850Z,99679.04
2018-07-11T11:03:48.380Z,99681.16
2018-07-11T11:06:17.416Z,99689.06
2018-07-11T11:08:46.420Z,99685.34
2018-07-11T11:11:15.468Z,99684.90
2018-07-11T11:13:44.415Z,99686.03
2018-07-11T11:16:13.542Z,99685.34
2018-07-11T11:18:42.552Z,99683.98
2018-07-11T11:21:11.558Z,99677.20
2018-07-11T11:23:40.540Z,99682.91
2018-07-11T11:26:09.540Z,99678.14
2018-07-11T11:28:38.520Z,99676.91
2018-07-11T11:31:07.540Z,99676.55
2018-07-11T11:33:36.669Z,99677.98
2018-07-11T11:36:05.632Z,99676.33
2018-07-11T11:38:34.683Z,99664.53
2018-07-11T11:41:03.688Z,99665.05
2018-07-11T11:43:32.717Z,99667.70
2018-07-11T11:46:01.823Z,99670.52
2018-07-11T11:48:30.852Z,99666.10
2018-07-11T11:50:59.882Z,99666.36
2018-07-11T11:53:28.876Z,99663.95
2018-07-11T11:55:57.919Z,99667.86
2018-07-11T11:58:27.123Z,99661.88
2018-07-11T12:00:56.163Z,99654.13
2018-07-11T12:03:25.135Z,99658.80
2018-07-11T12:05:54.156Z,99661.44
2018-07-11T12:08:23.156Z,99655.03
2018-07-11T12:10:52.187Z,99658.84
2018-07-11T12:13:21.243Z,99653.59
2018-07-11T12:15:50.252Z,99648.37
2018-07-11T12:18:19.262Z,99651.55
2018-07-11T12:20:48.282Z,99650.08
2018-07-11T12:23:17.288Z,99648.42
2018-07-11T12:26:08.852Z,99648.77
2018-07-11T12:28:37.862Z,99645.48
2018-07-11T12:31:07.101Z,99645.63
2018-07-11T12:33:36.307Z,99645.36
2018-07-11T12:36:05.317Z,99639.17
2018-07-11T12:38:34.750Z,99641.02
2018-07-11T12:41:03.700Z,99641.98
2018-07-11T12:43:32.831Z,99646.73
2018-07-11T12:46:01.853Z,99642.66
2018-07-11T12:48:36.084Z,99645.38
2018-07-11T12:51:05.053Z,99637.28
2018-07-11T12:53:34.140Z,99638.31
2018-07-11T12:56:03.132Z,99632.11
2018-07-11T12:58:32.188Z,99635.33
2018-07-11T13:01:01.181Z,99631.30
2018-07-11T13:03:30.244Z,99637.34
2018-07-11T13:05:59.325Z,99637.05
2018-07-11T13:08:28.356Z,99638.31
2018-07-11T13:10:57.389Z,99632.38
2018-07-11T13:13:26.477Z,99641.19
2018-07-11T13:15:55.624Z,99630.88
2018-07-11T13:18:24.624Z,99631.44
2018-07-11T13:20:53.661Z,99620.41
2018-07-11T13:23:22.737Z,99625.07
2018-07-11T13:25:51.785Z,99626.55
2018-07-11T13:28:20.744Z,99624.77
2018-07-11T13:30:49.884Z,99623.14
2018-07-11T13:33:19.402Z,99617.88
2018-07-11T13:35:48.457Z,99620.14
2018-07-11T13:38:17.493Z,99620.69
2018-07-11T13:40:47.085Z,99624.03
2018-07-11T13:43:16.117Z,99624.48
2018-07-11T13:45:45.088Z,99621.11
2018-07-11T13:48:15.114Z,99625.44
2018-07-11T13:50:44.257Z,99619.97
2018-07-11T13:53:13.217Z,99623.04
2018-07-11T13:55:42.210Z,99622.95
2018-07-11T13:58:11.584Z,99611.27
2018-07-11T14:00:40.572Z,99610.37
2018-07-11T14:03:09.608Z,99607.73
2018-07-11T14:05:38.665Z,99608.81
2018-07-11T14:08:07.672Z,99608.74
2018-07-11T14:10:36.686Z,99603.02
2018-07-11T14:13:05.632Z,99601.12
2018-07-11T14:15:34.586Z,99607.03
2018-07-11T14:18:03.522Z,99613.92
2018-07-11T14:20:32.522Z,99611.53
2018-07-11T14:23:07.493Z,99612.45
2018-07-11T14:25:38.350Z,99613.64
2018-07-11T14:28:07.395Z,99605.80
2018-07-11T14:30:37.566Z,99604.16
2018-07-11T14:33:09.284Z,99603.03
2018-07-11T14:35:38.288Z,99604.50
2018-07-11T14:38:07.345Z,99604.54
2018-07-11T14:40:36.344Z,99598.66
2018-07-11T14:43:05.427Z,99590.55
2018-07-11T14:45:34.806Z,99590.65
2018-07-11T14:48:10.051Z,99589.50
2018-07-11T14:50:39.107Z,99590.98
2018-07-11T14:53:08.129Z,99591.03
2018-07-11T14:55:37.095Z,99590.88
2018-07-11T14:58:06.178Z,99596.23
2018-07-11T15:00:35.245Z,99589.27
2018-07-11T15:03:04.303Z,99591.02
2018-07-11T15:05:33.348Z,99594.01
2018-07-11T15:08:02.417Z,99593.06
2018-07-11T15:10:31.847Z,99588.30
2018-07-11T15:13:01.328Z,99587.34
2018-07-11T15:15:30.749Z,99591.48
2018-07-11T15:17:59.936Z,99586.34
2018-07-11T15:20:29.075Z,99598.27
2018-07-11T15:22:58.235Z,99595.00
2018-07-11T15:25:27.135Z,99595.72
2018-07-11T15:27:56.275Z,99594.59
2018-07-11T15:30:25.378Z,99592.19
2018-07-11T15:32:54.414Z,99598.39
2018-07-11T15:35:23.419Z,99596.84
2018-07-11T15:37:52.391Z,99592.27
2018-07-11T15:40:21.523Z,99603.44
2018-07-11T15:42:50.592Z,99595.78
2018-07-11T15:45:19.656Z,99594.40
2018-07-11T15:47:48.763Z,99597.21
2018-07-11T15:50:17.735Z,99603.00
2018-07-11T15:52:46.881Z,99601.89
2018-07-11T15:55:15.852Z,99601.75
2018-07-11T15:57:53.281Z,99592.39
2018-07-11T16:00:26.947Z,99602.94
2018-07-11T16:02:56.301Z,99591.94
2018-07-11T16:05:28.360Z,99600.23
2018-07-11T16:07:58.768Z,99597.58
2018-07-11T16:10:35.238Z,99603.17
2018-07-11T16:13:04.372Z,99601.28
2018-07-11T16:15:33.396Z,99603.87
2018-07-11T16:18:02.411Z,99602.48
2018-07-11T16:20:31.493Z,99598.92
2018-07-11T16:23:01.248Z,99601.68
2018-07-11T16:25:30.380Z,99596.52
2018-07-11T16:27:59.559Z,99601.82
2018-07-11T16:30:28.704Z,99603.56
2018-07-11T16:32:57.781Z,99605.31
2018-07-11T16:35:26.793Z,99602.70
2018-07-11T16:37:55.929Z,99605.75
2018-07-11T16:40:26.050Z,99601.68
2018-07-11T16:42:55.963Z,99603.92
2018-07-11T16:45:25.336Z,99601.14
2018-07-11T16:47:54.376Z,99595.98
2018-07-11T16:50:23.404Z,99603.97
2018-07-11T16:52:52.553Z,99604.64
2018-07-11T16:55:21.641Z,99614.03
2018-07-11T16:57:52.154Z,99611.37
2018-07-11T17:00:27.302Z,99607.57
2018-07-11T17:03:04.912Z,99602.91
2018-07-11T17:05:39.816Z,99603.82
2018-07-11T17:08:08.958Z,99614.30
2018-07-11T17:10:41.899Z,99604.98
2018-07-11T17:13:21.531Z,99604.75
2018-07-11T17:15:51.821Z,99604.52
2018-07-11T17:18:36.024Z,99610.60
2018-07-11T17:21:08.536Z,99606.75
2018-07-11T17:23:45.361Z,99603.47
2018-07-11T17:26:14.395Z,99608.45
2018-07-11T17:28:43.664Z,99602.12
2018-07-11T17:31:12.641Z,99610.08
2018-07-11T17:33:41.708Z,99612.05
2018-07-11T17:36:11.199Z,99615.08
2018-07-11T17:38:40.343Z,99615.91
2018-07-11T17:41:09.393Z,99617.83
2018-07-11T17:43:39.777Z,99615.34
2018-07-11T17:46:09.474Z,99618.06
2018-07-11T17:48:48.768Z,99629.31
2018-07-11T17:51:28.115Z,99627.09
2018-07-11T17:53:58.872Z,99627.59
2018-07-11T17:56:37.637Z,99622.37
2018-07-11T17:59:06.706Z,99626.43
2018-07-11T18:01:42.328Z,99631.56
2018-07-11T18:04:17.164Z,99624.94
2018-07-11T18:07:02.002Z,99628.48
2018-07-11T18:09:59.798Z,99633.34
2018-07-11T18:13:14.865Z,99609.05
2018-07-11T18:15:53.982Z,99648.00
2018-07-11T18:18:55.195Z,99645.47
2018-07-11T18:21:34.061Z,99655.77
2018-07-11T18:26:18.720Z,99655.70
2018-07-11T18:31:02.153Z,99660.19
2018-07-11T18:35:50.105Z,99666.04
2018-07-11T18:38:23.876Z,99672.13
2018-07-11T18:43:03.692Z,99677.00
2018-07-11T18:45:47.148Z,99684.30
2018-07-11T18:48:23.864Z,99683.44
2018-07-11T18:51:34.796Z,99690.82
2018-07-11T18:54:18.896Z,99688.29
2018-07-11T18:57:08.992Z,99693.47
2018-07-11T19:00:51.348Z,99697.88
2018-07-11T19:04:31.141Z,99691.73
2018-07-11T19:07:13.427Z,99704.30
2018-07-11T19:09:53.816Z,99707.78
2018-07-11T19:12:36.548Z,99710.22
2018-07-11T19:15:08.908Z,99713.74
2018-07-11T19:18:50.348Z,99708.19
2018-07-11T19:21:29.840Z,99714.44
2018-07-11T19:24:05.206Z,99714.64
2018-07-11T19:26:54.860Z,99712.44
2018-07-11T19:30:20.026Z,99718.44
2018-07-11T19:32:58.819Z,99721.08
2018-07-11T19:35:38.638Z,99722.98
2018-07-11T19:38:45.714Z,99722.05
2018-07-11T19:41:19.591Z,99725.81
2018-07-11T19:46:00.319Z,99726.52
2018-07-11T19:48:44.015Z,99723.02
2018-07-11T19:52:33.333Z,99721.31
2018-07-11T19:57:13.677Z,99722.52
2018-07-11T19:59:42.710Z,99717.41
2018-07-11T20:02:11.737Z,99708.91
2018-07-11T20:04:40.817Z,99719.25
2018-07-11T20:07:09.860Z,99712.13
2018-07-11T20:09:38.893Z,99719.44
2018-07-11T20:12:07.859Z,99717.77
2018-07-11T20:14:36.882Z,99721.03
2018-07-11T20:17:05.977Z,99717.23
2018-07-11T20:19:35.010Z,99708.73
2018-07-11T20:22:04.022Z,99717.41
2018-07-11T20:24:33.040Z,99713.53
2018-07-11T20:27:02.061Z,99716.75
2018-07-11T20:29:31.165Z,99725.43
2018-07-11T20:32:00.209Z,99727.58
2018-07-11T20:34:29.172Z,99729.16
2018-07-11T20:36:58.289Z,99729.94
2018-07-11T20:39:27.275Z,99728.22
2018-07-11T20:41:56.300Z,99729.80
2018-07-11T20:44:25.335Z,99733.81
2018-07-11T20:46:54.292Z,99729.42
2018-07-11T20:49:28.545Z,99728.56
2018-07-11T20:51:57.561Z,99732.07
2018-07-11T20:54:26.661Z,99730.41
2018-07-11T20:56:55.697Z,99734.45
2018-07-11T20:59:35.742Z,99733.86
2018-07-11T21:02:15.704Z,99727.54
2018-07-11T21:05:14.677Z,99737.87
2018-07-11T21:07:56.105Z,99735.32
2018-07-11T21:10:31.938Z,99737.66
2018-07-11T21:13:14.964Z,99742.77
2018-07-11T21:15:55.065Z,99738.41
2018-07-11T21:18:38.273Z,99746.30
2018-07-11T21:21:07.353Z,99745.50
2018-07-11T21:23:36.373Z,99746.62
2018-07-11T21:26:05.396Z,99750.78
2018-07-11T21:28:34.470Z,99746.39
2018-07-11T21:31:03.453Z,99745.91
2018-07-11T21:33:32.452Z,99744.84
2018-07-11T21:36:01.461Z,99742.95
2018-07-11T21:38:30.485Z,99747.88
2018-07-11T21:40:59.562Z,99746.77
2018-07-11T21:43:28.580Z,99751.38
2018-07-11T21:45:57.693Z,99749.71
2018-07-11T21:48:26.835Z,99750.78
2018-07-11T21:50:55.864Z,99752.45
2018-07-11T21:53:24.949Z,99752.73
2018-07-11T21:55:54.077Z,99750.55
2018-07-11T21:58:23.105Z,99760.10
2018-07-11T22:00:52.149Z,99758.14
2018-07-11T22:03:21.116Z,99766.03
2018-07-11T22:05:50.070Z,99764.91
2018-07-11T22:08:19.081Z,99760.63
2018-07-11T22:10:48.040Z,99751.08
2018-07-11T22:13:17.044Z,99756.84
2018-07-11T22:15:46.058Z,99758.73
2018-07-11T22:18:26.049Z,99754.41
2018-07-11T22:20:53.557Z,99765.80
2018-07-11T22:23:21.097Z,99761.11
2018-07-11T22:25:48.711Z,99757.61
2018-07-11T22:28:16.240Z,99759.80
2018-07-11T22:30:43.789Z,99755.05
2018-07-11T22:33:11.311Z,99750.96
2018-07-11T22:35:38.911Z,99752.33
2018-07-11T22:38:06.434Z,99753.66
2018-07-11T22:40:34.065Z,99751.94
2018-07-11T22:43:01.603Z,99750.81
2018-07-11T22:45:29.135Z,99750.52
2018-07-11T22:47:56.862Z,99749.69
2018-07-11T22:50:24.333Z,99750.58
2018-07-11T22:52:51.908Z,99750.34
2018-07-11T22:55:19.468Z,99754.38
2018-07-11T22:57:46.995Z,99755.80
2018-07-11T23:00:14.613Z,99754.38
2018-07-11T23:02:42.191Z,99756.03
2018-07-11T23:05:09.725Z,99759.23
2018-07-11T23:07:37.206Z,99757.55
2018-07-11T23:10:04.850Z,99750.06
2018-07-11T23:12:32.374Z,99753.30
2018-07-11T23:14:59.913Z,99744.75
2018-07-11T23:17:27.400Z,99748.25
2018-07-11T23:19:54.940Z,99752.05
2018-07-11T23:22:22.464Z,99758.09
2018-07-11T23:24:49.933Z,99752.88
2018-07-11T23:27:17.529Z,99754.74
2018-07-11T23:29:45.046Z,99756.91
2018-07-11T23:32:12.517Z,99753.61
2018-07-11T23:34:40.111Z,99756.28
2018-07-11T23:37:07.713Z,99759.01
2018-07-11T23:39:35.260Z,99754.32
2018-07-11T23:42:02.777Z,99755.09
2018-07-11T23:44:30.328Z,99755.30
2018-07-11T23:46:57.840Z,99760.62
2018-07-11T23:49:25.382Z,99756.66
2018-07-11T23:51:52.918Z,99757.06
2018-07-11T23:54:20.404Z,99760.72
2018-07-11T23:56:47.945Z,99765.47
2018-07-11T23:59:15.416Z,99760.61
